Time;durP1;ratioP1;P1;durP2;ratioP2;P2;SDS_P1;SDS_P2;PMS_P1;PMS_P2;Temp;Humidity;BMP_temperature;BMP_pressure;BME280_temperature;BME280_humidity;BME280_pressure;Samples;Min_cycle;Max_cycle;Signal;HPM_P1;HPM_P2
2021/11/07 00:00:42;;;;;;;9.20;7.55;;;;;;;;;;5021322;28;20182;-77
2021/11/07 00:03:50;;;;;;;9.52;7.70;;;;;;;;;;5018084;28;20209;-78
2021/11/07 00:06:14;;;;;;;10.77;7.97;;;;;;;;;;5021985;28;20243;-77
2021/11/07 00:08:48;;;;;;;10.45;8.32;;;;;;;;;;5055766;28;20206;-75
2021/11/07 00:11:51;;;;;;;11.63;8.85;;;;;;;;;;5019584;28;20198;-76
2021/11/07 00:14:09;;;;;;;7.50;6.75;;;;;;;;;;5019372;28;20675;-77
2021/11/07 00:16:37;;;;;;;8.02;6.50;;;;;;;;;;5016759;28;20203;-78
2021/11/07 00:24:21;;;;;;;8.40;5.93;;;;;;;;;;5019062;28;20632;-77
2021/11/07 00:26:55;;;;;;;7.78;6.55;;;;;;;;;;5036752;28;20477;-78
2021/11/07 00:29:24;;;;;;;7.55;6.10;;;;;;;;;;5019745;28;20180;-78
2021/11/07 00:32:04;;;;;;;7.07;6.38;;;;;;;;;;5019892;28;20191;-77
2021/11/07 00:37:22;;;;;;;7.45;6.30;;;;;;;;;;5020994;28;20202;-77
2021/11/07 00:40:06;;;;;;;6.20;5.60;;;;;;;;;;5022862;28;20636;-78
2021/11/07 00:45:12;;;;;;;9.90;5.93;;;;;;;;;;5018996;28;20253;-78
2021/11/07 00:47:56;;;;;;;6.50;5.70;;;;;;;;;;5023813;28;20217;-78
2021/11/07 00:50:26;;;;;;;6.90;5.45;;;;;;;;;;5020871;28;20235;-78
2021/11/07 00:53:24;;;;;;;7.78;5.93;;;;;;;;;;5018197;28;20182;-78
2021/11/07 00:58:42;;;;;;;5.93;5.20;;;;;;;;;;5057566;28;20205;-78
2021/11/07 01:01:13;;;;;;;4.97;4.55;;;;;;;;;;5055053;28;20183;-77
2021/11/07 01:03:41;;;;;;;5.72;5.20;;;;;;;;;;5051152;28;20286;-77
2021/11/07 01:06:07;;;;;;;6.25;4.85;;;;;;;;;;5059291;28;20177;-77
2021/11/07 01:08:34;;;;;;;5.57;5.00;;;;;;;;;;5060475;28;20208;-78
2021/11/07 01:11:00;;;;;;;6.72;5.10;;;;;;;;;;5052572;28;20204;-78
2021/11/07 01:13:27;;;;;;;5.75;4.60;;;;;;;;;;5040697;28;20189;-77
2021/11/07 01:15:54;;;;;;;6.45;4.97;;;;;;;;;;5040838;28;20185;-77
2021/11/07 01:18:20;;;;;;;5.30;4.82;;;;;;;;;;5059133;28;20194;-77
2021/11/07 01:20:48;;;;;;;5.65;4.80;;;;;;;;;;5061752;28;20568;-77
2021/11/07 01:23:19;;;;;;;7.57;4.75;;;;;;;;;;5054149;28;20189;-78
2021/11/07 01:25:48;;;;;;;5.65;4.38;;;;;;;;;;5058519;28;20582;-78
2021/11/07 01:28:15;;;;;;;6.00;5.40;;;;;;;;;;5058103;28;20189;-77
2021/11/07 01:30:53;;;;;;;10.07;5.05;;;;;;;;;;5059710;28;20236;-77
2021/11/07 01:33:26;;;;;;;5.05;4.53;;;;;;;;;;5044591;28;20196;-78
2021/11/07 01:39:02;;;;;;;5.35;4.75;;;;;;;;;;5018639;28;20205;-77
2021/11/07 01:41:27;;;;;;;5.15;4.13;;;;;;;;;;5022991;28;20194;-78
2021/11/07 01:43:56;;;;;;;5.53;4.85;;;;;;;;;;5017770;28;20190;-78
2021/11/07 01:49:09;;;;;;;6.03;4.90;;;;;;;;;;5017386;28;20206;-76
2021/11/07 01:51:36;;;;;;;6.32;4.38;;;;;;;;;;5054951;28;20752;-77
2021/11/07 01:54:20;;;;;;;4.65;4.15;;;;;;;;;;5015387;28;20178;-77
2021/11/07 01:56:46;;;;;;;9.73;4.22;;;;;;;;;;5050863;28;20190;-76
2021/11/07 01:59:11;;;;;;;5.10;4.20;;;;;;;;;;5020293;28;20178;-77
2021/11/07 02:01:37;;;;;;;4.63;4.20;;;;;;;;;;5019735;28;20213;-77
2021/11/07 02:04:04;;;;;;;5.22;4.10;;;;;;;;;;5028797;28;20441;-77
2021/11/07 02:06:30;;;;;;;4.40;4.00;;;;;;;;;;5019924;28;20206;-77
2021/11/07 02:08:56;;;;;;;8.68;5.35;;;;;;;;;;5017375;28;20189;-76
2021/11/07 02:11:22;;;;;;;4.45;4.05;;;;;;;;;;5049918;28;20305;-76
2021/11/07 02:13:49;;;;;;;5.82;5.05;;;;;;;;;;5018339;28;20190;-77
2021/11/07 02:16:15;;;;;;;9.20;4.85;;;;;;;;;;5018459;28;20250;-77
2021/11/07 02:18:42;;;;;;;6.80;4.60;;;;;;;;;;5016995;28;20187;-77
2021/11/07 02:21:08;;;;;;;9.32;4.85;;;;;;;;;;5016572;28;20205;-76
2021/11/07 02:23:34;;;;;;;6.13;5.15;;;;;;;;;;5016977;28;20238;-78
2021/11/07 02:26:05;;;;;;;7.72;4.47;;;;;;;;;;5017747;28;20221;-76
2021/11/07 02:28:39;;;;;;;6.13;4.57;;;;;;;;;;5017921;28;20194;-77
2021/11/07 02:31:07;;;;;;;6.72;4.80;;;;;;;;;;5020168;28;20229;-77
2021/11/07 02:33:33;;;;;;;5.03;4.57;;;;;;;;;;5017676;28;20641;-77
2021/11/07 02:36:06;;;;;;;5.97;4.90;;;;;;;;;;5016092;28;20564;-77
2021/11/07 02:38:33;;;;;;;6.60;4.97;;;;;;;;;;5015759;28;20233;-77
2021/11/07 02:40:59;;;;;;;6.38;5.43;;;;;;;;;;5021936;28;20198;-78
2021/11/07 02:43:25;;;;;;;5.47;4.95;;;;;;;;;;5021307;28;20197;-76
2021/11/07 02:45:51;;;;;;;5.13;4.72;;;;;;;;;;5020358;28;20246;-77
2021/11/07 02:48:17;;;;;;;5.93;4.68;;;;;;;;;;5035645;28;20178;-77
2021/11/07 02:50:44;;;;;;;6.75;4.97;;;;;;;;;;5021799;28;20205;-77
2021/11/07 02:53:10;;;;;;;7.15;5.15;;;;;;;;;;5019838;28;20189;-77
2021/11/07 02:55:36;;;;;;;5.38;4.05;;;;;;;;;;5020786;28;20194;-76
2021/11/07 02:58:03;;;;;;;4.47;4.05;;;;;;;;;;5024222;28;20186;-77
2021/11/07 03:00:30;;;;;;;5.85;4.50;;;;;;;;;;5021881;28;20237;-77
2021/11/07 03:02:57;;;;;;;5.60;4.55;;;;;;;;;;5025810;28;20186;-78
2021/11/07 03:05:23;;;;;;;5.80;4.93;;;;;;;;;;5053781;28;20631;-77
2021/11/07 03:07:49;;;;;;;6.75;6.05;;;;;;;;;;5039846;28;20329;-77
2021/11/07 03:10:17;;;;;;;7.15;5.20;;;;;;;;;;5021978;28;20206;-77
2021/11/07 03:12:44;;;;;;;4.82;4.43;;;;;;;;;;5020471;28;20187;-77
2021/11/07 03:15:12;;;;;;;5.80;4.82;;;;;;;;;;5023748;28;20241;-77
2021/11/07 03:17:39;;;;;;;5.47;5.00;;;;;;;;;;5041504;28;20221;-76
2021/11/07 03:20:06;;;;;;;8.57;4.15;;;;;;;;;;5020011;28;20193;-77
2021/11/07 03:22:32;;;;;;;5.88;5.22;;;;;;;;;;5019913;28;20251;-78
2021/11/07 03:24:59;;;;;;;5.57;4.63;;;;;;;;;;5031507;28;20197;-76
2021/11/07 03:27:36;;;;;;;5.43;4.40;;;;;;;;;;5023949;28;20182;-77
2021/11/07 03:30:07;;;;;;;7.88;5.07;;;;;;;;;;5023281;28;20596;-77
2021/11/07 03:32:36;;;;;;;7.95;5.07;;;;;;;;;;5053572;28;20170;-77
2021/11/07 03:35:04;;;;;;;5.72;5.03;;;;;;;;;;5020492;28;20187;-77
2021/11/07 03:37:36;;;;;;;5.88;4.68;;;;;;;;;;5021148;28;20194;-77
2021/11/07 03:40:05;;;;;;;4.90;4.50;;;;;;;;;;5018699;28;20198;-76
2021/11/07 03:42:31;;;;;;;6.63;4.60;;;;;;;;;;5022686;28;20186;-77
2021/11/07 03:44:57;;;;;;;5.32;4.70;;;;;;;;;;5018508;28;20228;-76
2021/11/07 03:47:23;;;;;;;5.82;5.22;;;;;;;;;;5019335;28;20186;-76
2021/11/07 03:49:49;;;;;;;5.43;4.68;;;;;;;;;;5019567;28;20215;-76
2021/11/07 03:52:16;;;;;;;5.88;4.35;;;;;;;;;;5024528;28;20171;-77
2021/11/07 03:54:43;;;;;;;7.25;5.00;;;;;;;;;;5024390;28;20167;-79
2021/11/07 03:57:11;;;;;;;5.28;4.78;;;;;;;;;;5017912;28;20199;-77
2021/11/07 03:59:37;;;;;;;7.90;4.82;;;;;;;;;;5041185;28;20185;-77
2021/11/07 04:02:03;;;;;;;5.63;4.47;;;;;;;;;;5020567;28;20193;-75
2021/11/07 04:04:29;;;;;;;6.28;5.35;;;;;;;;;;5017901;28;20190;-77
2021/11/07 04:06:55;;;;;;;5.68;5.13;;;;;;;;;;5009010;28;20179;-77
2021/11/07 04:09:21;;;;;;;6.40;4.75;;;;;;;;;;5024290;28;20193;-77
2021/11/07 04:11:48;;;;;;;5.13;4.25;;;;;;;;;;5019981;28;20198;-76
2021/11/07 04:14:14;;;;;;;8.85;4.22;;;;;;;;;;5050915;28;20188;-76
2021/11/07 04:16:40;;;;;;;4.78;4.38;;;;;;;;;;5018412;28;20178;-77
2021/11/07 04:19:07;;;;;;;4.97;4.40;;;;;;;;;;5021848;28;20251;-77
2021/11/07 04:21:33;;;;;;;5.68;4.38;;;;;;;;;;5021562;28;20597;-77
2021/11/07 04:23:59;;;;;;;5.30;4.25;;;;;;;;;;5015295;28;20187;-77
2021/11/07 04:26:26;;;;;;;6.40;4.00;;;;;;;;;;5051377;28;20194;-77
2021/11/07 04:28:52;;;;;;;4.63;3.95;;;;;;;;;;5020046;28;20217;-76
2021/11/07 04:31:18;;;;;;;6.68;3.63;;;;;;;;;;5020954;28;20198;-77
2021/11/07 04:33:44;;;;;;;4.78;4.18;;;;;;;;;;5016820;28;20667;-77
2021/11/07 04:36:10;;;;;;;4.00;3.70;;;;;;;;;;5055094;28;20185;-77
2021/11/07 04:38:37;;;;;;;6.00;4.38;;;;;;;;;;5040237;28;20332;-77
2021/11/07 04:41:05;;;;;;;4.60;4.20;;;;;;;;;;5018135;28;20232;-76
2021/11/07 04:43:32;;;;;;;4.63;4.10;;;;;;;;;;5019881;28;20229;-78
2021/11/07 04:45:57;;;;;;;4.35;3.95;;;;;;;;;;5017984;28;20222;-77
2021/11/07 04:48:23;;;;;;;5.93;3.78;;;;;;;;;;5038058;28;20194;-76
2021/11/07 04:50:50;;;;;;;3.55;3.15;;;;;;;;;;5017743;28;20206;-77
2021/11/07 04:53:20;;;;;;;4.50;4.10;;;;;;;;;;5018282;28;20167;-76
2021/11/07 04:55:47;;;;;;;4.68;4.28;;;;;;;;;;5037687;28;20213;-77
2021/11/07 04:58:13;;;;;;;4.70;3.88;;;;;;;;;;5023835;28;20214;-76
2021/11/07 05:00:40;;;;;;;4.85;4.28;;;;;;;;;;5019772;28;20250;-77
2021/11/07 05:03:06;;;;;;;4.93;3.72;;;;;;;;;;5017932;28;20261;-78
2021/11/07 05:05:33;;;;;;;5.30;4.38;;;;;;;;;;5039406;28;20187;-77
2021/11/07 05:07:59;;;;;;;9.10;4.30;;;;;;;;;;5019137;28;20254;-77
2021/11/07 05:10:26;;;;;;;3.60;3.30;;;;;;;;;;5018281;28;20226;-77
2021/11/07 05:12:53;;;;;;;4.95;4.35;;;;;;;;;;5018385;28;20202;-78
2021/11/07 05:15:19;;;;;;;4.60;4.00;;;;;;;;;;5017739;28;20191;-77
2021/11/07 05:17:45;;;;;;;4.13;3.75;;;;;;;;;;5036016;28;20178;-77
2021/11/07 05:20:13;;;;;;;4.97;3.90;;;;;;;;;;5019485;28;20182;-78
2021/11/07 05:22:39;;;;;;;7.50;4.10;;;;;;;;;;5016428;28;20254;-77
2021/11/07 05:25:06;;;;;;;4.68;4.00;;;;;;;;;;5016542;28;20229;-77
2021/11/07 05:27:33;;;;;;;4.90;3.83;;;;;;;;;;5021214;28;20186;-77
2021/11/07 05:29:59;;;;;;;4.82;4.05;;;;;;;;;;5017986;28;20258;-76
2021/11/07 05:32:25;;;;;;;4.70;4.22;;;;;;;;;;5052816;28;20205;-77
2021/11/07 05:34:51;;;;;;;5.55;4.22;;;;;;;;;;5017978;28;20952;-77
2021/11/07 05:37:17;;;;;;;4.07;3.67;;;;;;;;;;5019311;28;20218;-76
2021/11/07 05:39:43;;;;;;;6.00;4.60;;;;;;;;;;5018040;28;20209;-77
2021/11/07 05:42:10;;;;;;;4.32;3.58;;;;;;;;;;5021506;28;20274;-77
2021/11/07 05:44:36;;;;;;;6.22;4.40;;;;;;;;;;5039128;28;20171;-77
2021/11/07 05:47:03;;;;;;;4.28;3.88;;;;;;;;;;5018284;28;20178;-77
2021/11/07 05:49:29;;;;;;;8.07;4.40;;;;;;;;;;5018894;28;20209;-76
2021/11/07 05:51:55;;;;;;;6.13;3.50;;;;;;;;;;5022914;28;20240;-77
2021/11/07 05:54:21;;;;;;;4.53;4.13;;;;;;;;;;5015594;28;20217;-77
2021/11/07 05:56:48;;;;;;;5.25;4.03;;;;;;;;;;5017255;28;20210;-76
2021/11/07 05:59:14;;;;;;;5.15;3.75;;;;;;;;;;5021421;28;20232;-76
2021/11/07 06:01:40;;;;;;;4.20;3.80;;;;;;;;;;5037081;28;20190;-76
2021/11/07 06:04:06;;;;;;;4.47;3.72;;;;;;;;;;5018671;28;20354;-76
2021/11/07 06:06:32;;;;;;;6.07;3.78;;;;;;;;;;5015362;28;20350;-77
2021/11/07 06:08:58;;;;;;;5.53;4.03;;;;;;;;;;5012980;28;20183;-77
2021/11/07 06:11:24;;;;;;;4.28;3.50;;;;;;;;;;5023084;28;20281;-76
2021/11/07 06:13:50;;;;;;;5.03;3.65;;;;;;;;;;5018638;28;20195;-77
2021/11/07 06:16:17;;;;;;;6.47;4.20;;;;;;;;;;5025527;28;20182;-78
2021/11/07 06:18:43;;;;;;;3.70;3.40;;;;;;;;;;5026034;28;20178;-77
2021/11/07 06:21:10;;;;;;;4.05;3.63;;;;;;;;;;5021493;28;20306;-78
2021/11/07 06:23:36;;;;;;;4.82;4.43;;;;;;;;;;5042826;28;20174;-77
2021/11/07 06:26:03;;;;;;;6.35;4.53;;;;;;;;;;5021689;28;20186;-77
2021/11/07 06:28:29;;;;;;;6.13;4.20;;;;;;;;;;5021871;28;20209;-76
2021/11/07 06:30:55;;;;;;;4.97;4.57;;;;;;;;;;5021641;28;20230;-77
2021/11/07 06:33:22;;;;;;;5.93;3.95;;;;;;;;;;5024379;28;20187;-77
2021/11/07 06:35:48;;;;;;;4.40;3.97;;;;;;;;;;5027075;28;20238;-76
2021/11/07 06:38:14;;;;;;;4.43;3.90;;;;;;;;;;5023311;28;20182;-76
2021/11/07 06:40:40;;;;;;;7.05;4.57;;;;;;;;;;5027136;28;20194;-76
2021/11/07 06:43:07;;;;;;;5.15;4.30;;;;;;;;;;5025885;28;20228;-78
2021/11/07 06:45:34;;;;;;;5.07;4.22;;;;;;;;;;5020803;28;20290;-76
2021/11/07 06:48:00;;;;;;;5.82;4.50;;;;;;;;;;5021422;28;20202;-76
2021/11/07 06:50:26;;;;;;;5.20;4.70;;;;;;;;;;5014225;28;20238;-77
2021/11/07 06:52:52;;;;;;;5.05;3.72;;;;;;;;;;5024791;28;20183;-77
2021/11/07 06:55:18;;;;;;;5.38;4.20;;;;;;;;;;5021893;28;20206;-76
2021/11/07 06:57:45;;;;;;;5.07;4.60;;;;;;;;;;5026231;28;20182;-76
2021/11/07 07:00:13;;;;;;;6.35;4.47;;;;;;;;;;5018775;28;20447;-76
2021/11/07 07:02:40;;;;;;;5.35;4.68;;;;;;;;;;5038256;28;20190;-77
2021/11/07 07:05:07;;;;;;;5.85;4.65;;;;;;;;;;5024482;28;20265;-76
2021/11/07 07:07:36;;;;;;;6.22;5.00;;;;;;;;;;5021512;28;20675;-76
2021/11/07 07:10:05;;;;;;;6.32;4.60;;;;;;;;;;5023422;28;20225;-76
2021/11/07 07:12:38;;;;;;;6.03;5.10;;;;;;;;;;5044837;28;20174;-76
2021/11/07 07:15:11;;;;;;;6.40;5.10;;;;;;;;;;5023773;28;20710;-76
2021/11/07 07:20:24;;;;;;;5.38;4.85;;;;;;;;;;5020963;28;20191;-76
2021/11/07 07:33:29;;;;;;;6.88;5.40;;;;;;;;;;5022420;28;20190;-75
2021/11/07 07:35:56;;;;;;;5.82;4.65;;;;;;;;;;5018785;28;20198;-76
2021/11/07 07:38:24;;;;;;;5.95;5.05;;;;;;;;;;5040826;28;20185;-76
2021/11/07 07:40:50;;;;;;;4.60;4.07;;;;;;;;;;5020195;28;20198;-77
2021/11/07 07:43:16;;;;;;;5.05;4.40;;;;;;;;;;5020471;28;20273;-76
2021/11/07 07:45:42;;;;;;;5.95;4.57;;;;;;;;;;5020119;28;20207;-77
2021/11/07 07:48:08;;;;;;;5.00;4.50;;;;;;;;;;5017357;28;20187;-79
2021/11/07 07:50:37;;;;;;;6.28;3.97;;;;;;;;;;5041235;28;20202;-78
2021/11/07 07:53:05;;;;;;;5.70;4.10;;;;;;;;;;5020274;28;20578;-78
2021/11/07 07:55:31;;;;;;;6.50;4.18;;;;;;;;;;5021985;28;20209;-79
2021/11/07 07:57:57;;;;;;;5.43;4.20;;;;;;;;;;5020271;28;20183;-78
2021/11/07 08:00:23;;;;;;;5.13;3.95;;;;;;;;;;5038490;28;20264;-78
2021/11/07 08:02:49;;;;;;;4.80;4.30;;;;;;;;;;5015117;28;20172;-78
2021/11/07 08:05:15;;;;;;;4.40;4.00;;;;;;;;;;5036013;28;20242;-78
2021/11/07 08:07:42;;;;;;;3.45;3.15;;;;;;;;;;5024307;28;20182;-78
2021/11/07 08:10:09;;;;;;;3.92;3.55;;;;;;;;;;5044615;28;20206;-79
2021/11/07 08:12:37;;;;;;;4.40;4.00;;;;;;;;;;5025478;28;20429;-77
2021/11/07 08:15:03;;;;;;;4.28;3.90;;;;;;;;;;5022011;28;20198;-78
2021/11/07 08:17:30;;;;;;;4.65;4.00;;;;;;;;;;5019587;28;20232;-79
2021/11/07 08:19:56;;;;;;;5.25;4.50;;;;;;;;;;5039081;28;20547;-78
2021/11/07 08:22:22;;;;;;;5.43;3.35;;;;;;;;;;5020775;28;20198;-79
2021/11/07 08:24:48;;;;;;;5.07;4.38;;;;;;;;;;5018033;28;20194;-77
2021/11/07 08:27:15;;;;;;;5.53;4.50;;;;;;;;;;5019813;28;20249;-80
2021/11/07 08:29:43;;;;;;;5.55;3.90;;;;;;;;;;5024552;28;20425;-80
2021/11/07 08:32:09;;;;;;;4.72;4.03;;;;;;;;;;5054299;28;20528;-77
2021/11/07 08:34:35;;;;;;;4.32;3.92;;;;;;;;;;5019043;28;20183;-78
2021/11/07 08:37:10;;;;;;;3.85;3.55;;;;;;;;;;5021831;28;20179;-78
2021/11/07 08:39:52;;;;;;;5.45;4.40;;;;;;;;;;5015395;28;20186;-79
2021/11/07 08:42:29;;;;;;;5.75;3.50;;;;;;;;;;5054719;28;20193;-80
2021/11/07 09:06:43;;;;;;;4.53;2.88;;;;;;;;;;5019893;28;20198;-78
2021/11/07 09:09:11;;;;;;;3.10;2.80;;;;;;;;;;5020379;28;20584;-78
2021/11/07 09:11:38;;;;;;;2.80;2.60;;;;;;;;;;5036909;28;20202;-78
2021/11/07 09:14:04;;;;;;;3.28;2.80;;;;;;;;;;5029662;28;20197;-79
2021/11/07 09:16:31;;;;;;;2.90;2.70;;;;;;;;;;5021175;28;20647;-79
2021/11/07 09:18:59;;;;;;;3.63;2.80;;;;;;;;;;5037543;28;20434;-78
2021/11/07 09:21:30;;;;;;;3.58;2.67;;;;;;;;;;5022010;28;20190;-79
2021/11/07 09:24:01;;;;;;;4.15;2.85;;;;;;;;;;5038161;28;20174;-77
2021/11/07 09:29:02;;;;;;;4.00;2.80;;;;;;;;;;5014677;28;20205;-78
2021/11/07 09:31:36;;;;;;;4.88;3.13;;;;;;;;;;5019228;28;20202;-78
2021/11/07 09:36:32;;;;;;;2.90;2.70;;;;;;;;;;5019043;28;20187;-77
2021/11/07 09:44:09;;;;;;;3.70;3.40;;;;;;;;;;5017351;28;20189;-78
2021/11/07 09:49:21;;;;;;;3.53;2.80;;;;;;;;;;5021108;28;20220;-79
2021/11/07 09:51:59;;;;;;;2.50;2.00;;;;;;;;;;5017454;28;20674;-78
2021/11/07 09:54:27;;;;;;;5.55;2.92;;;;;;;;;;5018046;28;20190;-78
2021/11/07 09:56:55;;;;;;;4.55;2.50;;;;;;;;;;5016626;28;20175;-78
2021/11/07 09:59:22;;;;;;;6.63;2.67;;;;;;;;;;5038336;28;20202;-78
2021/11/07 10:01:57;;;;;;;5.15;2.58;;;;;;;;;;5018782;28;20191;-79
2021/11/07 10:04:23;;;;;;;2.47;2.20;;;;;;;;;;5022982;28;20213;-79
2021/11/07 10:06:52;;;;;;;4.28;2.78;;;;;;;;;;5022632;28;20605;-78
2021/11/07 10:09:35;;;;;;;3.00;2.70;;;;;;;;;;5021769;28;20242;-78
2021/11/07 10:12:03;;;;;;;4.55;2.80;;;;;;;;;;5035955;28;20269;-78
2021/11/07 10:14:39;;;;;;;5.40;3.20;;;;;;;;;;5038266;28;20542;-77
2021/11/07 10:17:20;;;;;;;2.85;2.63;;;;;;;;;;5037616;28;20174;-78
2021/11/07 10:19:56;;;;;;;2.92;2.60;;;;;;;;;;5037893;28;20266;-78
2021/11/07 10:22:22;;;;;;;4.60;2.47;;;;;;;;;;5018906;28;20184;-78
2021/11/07 10:24:56;;;;;;;5.60;2.70;;;;;;;;;;5021444;28;20175;-79
2021/11/07 10:27:22;;;;;;;2.90;2.60;;;;;;;;;;5017912;28;20182;-78
2021/11/07 10:29:51;;;;;;;5.18;3.55;;;;;;;;;;5016725;28;20182;-78
2021/11/07 10:32:24;;;;;;;5.57;2.83;;;;;;;;;;5015850;28;20238;-79
2021/11/07 10:35:27;;;;;;;7.35;5.40;;;;;;;;;;5041060;28;20255;-78
2021/11/07 10:40:57;;;;;;;4.65;3.60;;;;;;;;;;5018292;28;20196;-78
2021/11/07 10:54:14;;;;;;;5.50;2.22;;;;;;;;;;5022356;28;20277;-78
2021/11/07 10:56:40;;;;;;;3.25;2.72;;;;;;;;;;5018595;28;20183;-77
2021/11/07 10:59:14;;;;;;;4.20;1.95;;;;;;;;;;5036864;28;20186;-78
2021/11/07 11:01:40;;;;;;;7.05;2.20;;;;;;;;;;5020676;28;20195;-78
2021/11/07 11:04:06;;;;;;;4.78;2.45;;;;;;;;;;5016559;28;20187;-78
2021/11/07 11:06:32;;;;;;;5.60;2.47;;;;;;;;;;5021192;28;20197;-79
2021/11/07 11:09:10;;;;;;;5.03;3.30;;;;;;;;;;5054945;28;20183;-79
2021/11/07 11:11:43;;;;;;;7.18;2.83;;;;;;;;;;5019090;28;20206;-77
2021/11/07 11:19:31;;;;;;;6.75;2.47;;;;;;;;;;5023187;28;20184;-75
2021/11/07 11:32:45;;;;;;;13.07;3.90;;;;;;;;;;5024115;28;20242;-76
2021/11/07 11:35:25;;;;;;;8.02;2.55;;;;;;;;;;5020633;28;20268;-75
2021/11/07 11:40:26;;;;;;;11.80;3.70;;;;;;;;;;5021272;28;20216;-75
2021/11/07 11:42:57;;;;;;;7.57;2.80;;;;;;;;;;5023876;28;20178;-75
2021/11/07 11:45:37;;;;;;;15.35;3.33;;;;;;;;;;5019709;28;20222;-75
2021/11/07 11:49:05;;;;;;;8.82;2.80;;;;;;;;;;5018430;28;20175;-76
2021/11/07 11:57:01;;;;;;;10.20;2.70;;;;;;;;;;5019311;28;20193;-76
2021/11/07 11:59:35;;;;;;;13.10;2.85;;;;;;;;;;5040639;28;20184;-77
2021/11/07 12:02:11;;;;;;;13.70;3.05;;;;;;;;;;5020469;28;20534;-75
2021/11/07 12:05:00;;;;;;;9.35;3.63;;;;;;;;;;5019035;28;20227;-78
2021/11/07 12:07:33;;;;;;;11.73;3.25;;;;;;;;;;5020525;28;20240;-77
2021/11/07 12:10:05;;;;;;;11.77;4.82;;;;;;;;;;5018858;28;20662;-77
2021/11/07 12:12:50;;;;;;;14.77;4.15;;;;;;;;;;5036434;28;20172;-75
2021/11/07 12:17:48;;;;;;;9.57;2.95;;;;;;;;;;5021382;28;20168;-75
2021/11/07 12:20:23;;;;;;;10.45;2.97;;;;;;;;;;5020266;28;20190;-75
2021/11/07 12:22:51;;;;;;;8.30;2.60;;;;;;;;;;5018858;28;20662;-75
2021/11/07 12:25:17;;;;;;;9.05;2.75;;;;;;;;;;5020141;28;20181;-75
2021/11/07 12:27:46;;;;;;;9.35;3.55;;;;;;;;;;5022341;28;20181;-75
2021/11/07 12:30:15;;;;;;;8.68;3.08;;;;;;;;;;5017707;28;20350;-76
2021/11/07 12:32:42;;;;;;;10.63;2.70;;;;;;;;;;5022346;28;20177;-75
2021/11/07 12:40:39;;;;;;;8.85;3.00;;;;;;;;;;5019870;28;20501;-75
2021/11/07 12:43:06;;;;;;;10.35;2.92;;;;;;;;;;5013265;28;20187;-75
2021/11/07 12:45:39;;;;;;;9.60;3.22;;;;;;;;;;5019907;28;20221;-74
2021/11/07 12:48:07;;;;;;;10.98;3.40;;;;;;;;;;5018259;28;20178;-77
2021/11/07 12:50:55;;;;;;;11.80;3.10;;;;;;;;;;5038226;28;20206;-77
2021/11/07 12:53:22;;;;;;;8.90;3.65;;;;;;;;;;5038747;28;20200;-77
2021/11/07 12:55:49;;;;;;;11.73;3.75;;;;;;;;;;5017869;28;20181;-76
2021/11/07 12:58:15;;;;;;;7.47;3.22;;;;;;;;;;5020709;28;20653;-76
2021/11/07 13:00:42;;;;;;;9.55;3.45;;;;;;;;;;5021896;28;20198;-77
2021/11/07 13:03:12;;;;;;;9.35;2.55;;;;;;;;;;5018208;28;20182;-75
2021/11/07 13:05:40;;;;;;;9.23;3.60;;;;;;;;;;5034452;28;20197;-76
2021/11/07 13:08:21;;;;;;;12.02;2.70;;;;;;;;;;5017847;28;20178;-77
2021/11/07 13:16:14;;;;;;;18.02;3.78;;;;;;;;;;5021803;28;20192;-76
2021/11/07 13:22:11;;;;;;;8.20;2.75;;;;;;;;;;5022989;28;20173;-76
2021/11/07 13:27:29;;;;;;;9.50;2.70;;;;;;;;;;5018808;28;20721;-76
2021/11/07 13:30:03;;;;;;;8.63;2.47;;;;;;;;;;5022673;28;20252;-76
2021/11/07 13:32:36;;;;;;;7.13;2.40;;;;;;;;;;5013882;28;20184;-76
2021/11/07 13:35:20;;;;;;;9.25;2.38;;;;;;;;;;5023614;28;20251;-75
2021/11/07 13:37:51;;;;;;;5.40;2.50;;;;;;;;;;5021948;28;20711;-77
2021/11/07 13:40:34;;;;;;;7.72;2.20;;;;;;;;;;5001949;28;20203;-77
2021/11/07 13:43:05;;;;;;;8.32;2.80;;;;;;;;;;5008497;28;20255;-77
2021/11/07 13:45:32;;;;;;;9.80;3.20;;;;;;;;;;5005463;28;20224;-76
2021/11/07 13:48:00;;;;;;;8.32;2.55;;;;;;;;;;4996370;28;20672;-77
2021/11/07 13:50:28;;;;;;;8.50;2.40;;;;;;;;;;5023352;28;20706;-76
2021/11/07 13:52:55;;;;;;;8.30;3.13;;;;;;;;;;5013458;28;20788;-77
2021/11/07 13:55:35;;;;;;;6.15;2.60;;;;;;;;;;5017774;28;20566;-79
2021/11/07 13:58:15;;;;;;;4.82;2.25;;;;;;;;;;5027336;28;20177;-77
2021/11/07 14:00:41;;;;;;;9.57;2.60;;;;;;;;;;5016904;28;20213;-77
2021/11/07 14:03:10;;;;;;;7.18;2.40;;;;;;;;;;5015208;28;20225;-76
2021/11/07 14:05:40;;;;;;;6.10;2.97;;;;;;;;;;5038552;28;20253;-77
2021/11/07 14:08:06;;;;;;;9.02;2.42;;;;;;;;;;5015120;28;20251;-76
2021/11/07 14:10:33;;;;;;;10.15;2.65;;;;;;;;;;5018424;28;20210;-76
2021/11/07 14:13:01;;;;;;;5.95;2.40;;;;;;;;;;5012103;28;20257;-75
2021/11/07 14:15:29;;;;;;;7.80;2.65;;;;;;;;;;5018060;28;20178;-76
2021/11/07 14:18:29;;;;;;;12.40;3.63;;;;;;;;;;5017514;28;20178;-76
2021/11/07 14:20:55;;;;;;;6.95;2.65;;;;;;;;;;4964678;28;20190;-76
2021/11/07 14:23:58;;;;;;;9.68;2.42;;;;;;;;;;4965501;28;20192;-77
2021/11/07 14:26:24;;;;;;;9.82;2.65;;;;;;;;;;4974853;28;20200;-76
2021/11/07 14:29:00;;;;;;;5.95;2.28;;;;;;;;;;4977516;28;20267;-76
2021/11/07 14:31:31;;;;;;;6.78;2.88;;;;;;;;;;4968909;28;20325;-75
2021/11/07 14:34:05;;;;;;;7.35;2.60;;;;;;;;;;4964010;28;20194;-77
2021/11/07 14:37:18;;;;;;;8.82;2.70;;;;;;;;;;4982766;28;20727;-77
2021/11/07 14:42:19;;;;;;;10.30;3.20;;;;;;;;;;4981900;28;20256;-77
2021/11/07 14:44:52;;;;;;;9.77;2.10;;;;;;;;;;4975516;28;20203;-78
2021/11/07 14:50:14;;;;;;;8.57;2.95;;;;;;;;;;4983715;28;20194;-76
2021/11/07 14:55:23;;;;;;;8.82;3.20;;;;;;;;;;4984049;28;20191;-77
2021/11/07 14:58:29;;;;;;;12.65;2.85;;;;;;;;;;5026323;28;20170;-76
2021/11/07 15:01:26;;;;;;;6.63;2.05;;;;;;;;;;5037260;28;20197;-76
2021/11/07 15:06:39;;;;;;;13.07;3.17;;;;;;;;;;5022783;28;20221;-75
2021/11/07 15:09:13;;;;;;;7.82;3.25;;;;;;;;;;5020475;28;20375;-77
2021/11/07 15:11:52;;;;;;;10.73;3.38;;;;;;;;;;5020483;28;20200;-77
2021/11/07 15:15:16;;;;;;;11.98;4.97;;;;;;;;;;5020783;28;20181;-77
2021/11/07 15:17:20;;;;;;;10.60;4.07;;;;;;;;;;5023774;28;20643;-76
2021/11/07 15:22:21;;;;;;;12.13;2.80;;;;;;;;;;5022841;28;20206;-76
2021/11/07 15:24:51;;;;;;;12.00;3.60;;;;;;;;;;5023607;28;20188;-75
2021/11/07 15:27:22;;;;;;;7.80;3.55;;;;;;;;;;5018953;28;20178;-77
2021/11/07 15:30:03;;;;;;;14.30;3.72;;;;;;;;;;5022268;28;20163;-76
2021/11/07 15:32:32;;;;;;;7.22;3.08;;;;;;;;;;5023332;28;20179;-76
2021/11/07 15:34:58;;;;;;;8.10;2.92;;;;;;;;;;5021136;28;20273;-76
2021/11/07 15:37:32;;;;;;;9.57;3.03;;;;;;;;;;5021129;28;20255;-76
2021/11/07 15:39:59;;;;;;;7.90;3.30;;;;;;;;;;5020095;28;20190;-76
2021/11/07 15:42:32;;;;;;;8.52;3.50;;;;;;;;;;5020940;28;20229;-75
2021/11/07 15:45:02;;;;;;;11.93;3.95;;;;;;;;;;5018804;28;20206;-76
2021/11/07 15:47:50;;;;;;;10.80;3.40;;;;;;;;;;5051681;28;20179;-76
2021/11/07 15:52:54;;;;;;;10.80;4.15;;;;;;;;;;5020292;28;20194;-76
2021/11/07 16:00:55;;;;;;;7.35;3.25;;;;;;;;;;5021889;28;20549;-77
2021/11/07 16:11:53;;;;;;;13.53;4.10;;;;;;;;;;5018614;28;20211;-77
2021/11/07 16:14:09;;;;;;;8.55;5.72;;;;;;;;;;5023447;28;20528;-77
2021/11/07 16:19:17;;;;;;;8.48;4.25;;;;;;;;;;5022730;28;20186;-76
2021/11/07 16:21:49;;;;;;;6.70;3.40;;;;;;;;;;5018089;28;20201;-76
2021/11/07 16:24:15;;;;;;;8.02;3.70;;;;;;;;;;5017411;28;20194;-76
2021/11/07 16:26:42;;;;;;;14.27;4.32;;;;;;;;;;5020511;28;20210;-76
2021/11/07 16:29:08;;;;;;;8.65;3.45;;;;;;;;;;5019530;28;20182;-76
2021/11/07 16:31:43;;;;;;;17.52;4.70;;;;;;;;;;5014623;28;21172;-76
2021/11/07 16:34:12;;;;;;;14.85;7.32;;;;;;;;;;5022482;28;20185;-76
2021/11/07 16:36:47;;;;;;;11.98;5.25;;;;;;;;;;5021503;28;20173;-76
2021/11/07 16:39:18;;;;;;;8.30;4.70;;;;;;;;;;5018864;28;20162;-75
2021/11/07 16:41:46;;;;;;;12.38;5.32;;;;;;;;;;5019435;28;20206;-75
2021/11/07 16:44:14;;;;;;;10.90;4.03;;;;;;;;;;5018614;28;20208;-75
2021/11/07 16:46:47;;;;;;;14.57;8.27;;;;;;;;;;5017555;28;20234;-76
2021/11/07 16:49:16;;;;;;;24.50;14.60;;;;;;;;;;5021143;28;20174;-76
2021/11/07 16:51:51;;;;;;;17.73;13.05;;;;;;;;;;5017885;28;20240;-76
2021/11/07 16:56:46;;;;;;;19.80;13.40;;;;;;;;;;5019538;28;20729;-76
2021/11/07 17:01:46;;;;;;;18.90;13.60;;;;;;;;;;5017839;28;20191;-76
2021/11/07 17:04:23;;;;;;;14.90;9.63;;;;;;;;;;5028253;28;20444;-76
2021/11/07 17:09:59;;;;;;;10.95;8.55;;;;;;;;;;5018296;28;20233;-76
2021/11/07 17:12:14;;;;;;;17.42;8.68;;;;;;;;;;5015525;28;20695;-76
2021/11/07 17:14:42;;;;;;;12.30;7.32;;;;;;;;;;5023370;28;20261;-76
2021/11/07 17:17:15;;;;;;;12.48;8.50;;;;;;;;;;5018784;28;20193;-76
2021/11/07 17:19:53;;;;;;;14.82;10.73;;;;;;;;;;5019417;28;20240;-76
2021/11/07 17:27:28;;;;;;;20.65;11.55;;;;;;;;;;5018126;28;20258;-76
2021/11/07 17:30:02;;;;;;;21.10;12.55;;;;;;;;;;5034572;28;20257;-76
2021/11/07 17:32:34;;;;;;;13.25;10.77;;;;;;;;;;5021581;28;20189;-76
2021/11/07 17:35:10;;;;;;;16.00;10.07;;;;;;;;;;5017860;28;20182;-76
2021/11/07 17:37:45;;;;;;;12.52;5.95;;;;;;;;;;5019220;28;20250;-76
2021/11/07 17:48:57;;;;;;;18.17;10.18;;;;;;;;;;5017720;28;20179;-76
2021/11/07 17:56:49;;;;;;;19.55;14.98;;;;;;;;;;5007270;28;20638;-76
2021/11/07 17:59:17;;;;;;;19.48;13.27;;;;;;;;;;5017203;28;20182;-76
2021/11/07 18:01:46;;;;;;;18.48;10.23;;;;;;;;;;5000981;28;20221;-76